createdAt,value
2023-03-02T00:00:16.206Z,22.60
2023-03-02T00:05:18.509Z,26.42
2023-03-02T00:10:20.627Z,25.75
2023-03-02T00:15:22.526Z,26.23
2023-03-02T00:20:24.257Z,27.73
2023-03-02T00:25:26.067Z,30.77
2023-03-02T00:30:27.851Z,29.65
2023-03-02T00:35:29.814Z,24.80
2023-03-02T00:40:31.590Z,24.42
2023-03-02T00:45:33.386Z,22.60
2023-03-02T00:50:40.884Z,26.13
2023-03-02T00:55:42.659Z,25.55
2023-03-02T01:00:44.748Z,25.05
2023-03-02T01:05:47.209Z,27.60
2023-03-02T01:10:49.297Z,24.80
2023-03-02T01:16:01.011Z,30.73
2023-03-02T01:21:06.161Z,21.70
2023-03-02T01:26:08.642Z,26.63
2023-03-02T01:31:10.482Z,28.33
2023-03-02T01:36:12.374Z,26.27
2023-03-02T01:41:14.627Z,23.25
2023-03-02T01:46:19.953Z,27.25
2023-03-02T01:51:28.242Z,25.00
2023-03-02T01:56:36.669Z,19.52
2023-03-02T02:01:44.282Z,24.27
2023-03-02T02:06:53.600Z,18.98
2023-03-02T02:11:56.098Z,26.35
2023-03-02T02:16:58.360Z,24.77
2023-03-02T02:22:00.240Z,21.63
2023-03-02T02:27:02.644Z,22.20
2023-03-02T02:32:17.899Z,20.92
2023-03-02T02:37:33.935Z,28.48
2023-03-02T02:42:41.803Z,21.55
2023-03-02T02:47:43.728Z,24.63
2023-03-02T02:52:50.774Z,25.55
2023-03-02T02:57:55.999Z,23.70
2023-03-02T03:03:04.978Z,27.23
2023-03-02T03:08:11.015Z,24.85
2023-03-02T03:13:14.400Z,28.15
2023-03-02T03:18:23.069Z,30.13
2023-03-02T03:23:25.033Z,26.40
2023-03-02T03:28:27.744Z,24.38
2023-03-02T03:33:29.798Z,26.45
2023-03-02T03:38:31.719Z,26.55
2023-03-02T03:43:33.564Z,27.70
2023-03-02T03:48:35.424Z,23.17
2023-03-02T03:53:37.781Z,28.67
2023-03-02T03:58:40.641Z,24.05
2023-03-02T04:03:42.466Z,26.08
2023-03-02T04:08:44.382Z,24.58
2023-03-02T04:13:46.263Z,23.15
2023-03-02T04:18:48.188Z,19.83
2023-03-02T04:23:50.672Z,21.80
2023-03-02T04:28:52.719Z,23.27
2023-03-02T04:33:55.043Z,25.15
2023-03-02T04:38:56.976Z,25.20
2023-03-02T04:43:58.711Z,18.83
2023-03-02T04:49:00.718Z,21.33
2023-03-02T04:54:06.945Z,20.85
2023-03-02T04:59:09.013Z,17.52
2023-03-02T05:04:11.575Z,27.58
2023-03-02T05:09:13.759Z,27.80
2023-03-02T05:14:15.642Z,25.65
2023-03-02T05:19:18.379Z,25.83
2023-03-02T05:24:20.256Z,23.23
2023-03-02T05:29:22.246Z,20.55
2023-03-02T05:34:24.131Z,16.73
2023-03-02T05:39:27.419Z,25.00
2023-03-02T05:44:29.114Z,22.08
2023-03-02T05:49:30.857Z,17.38
2023-03-02T05:54:32.613Z,16.08
2023-03-02T05:59:34.597Z,20.58
2023-03-02T06:04:42.911Z,20.08
2023-03-02T06:09:44.700Z,16.50
2023-03-02T06:14:46.899Z,18.40
2023-03-02T06:19:48.808Z,20.80
2023-03-02T06:24:50.592Z,20.50
2023-03-02T06:29:53.199Z,22.63
2023-03-02T06:34:54.965Z,22.80
2023-03-02T06:39:57.564Z,24.08
2023-03-02T06:44:59.295Z,22.60
2023-03-02T06:50:01.272Z,25.42
2023-03-02T06:55:03.670Z,21.85
2023-03-02T07:00:25.843Z,23.33
2023-03-02T07:05:29.154Z,24.38
2023-03-02T07:10:31.101Z,24.73
2023-03-02T07:15:32.875Z,24.45
2023-03-02T07:20:34.669Z,21.92
2023-03-02T07:25:37.518Z,21.92
2023-03-02T07:30:39.315Z,19.67
2023-03-02T07:35:41.132Z,21.27
2023-03-02T07:40:43.307Z,18.80
2023-03-02T07:45:45.222Z,19.65
2023-03-02T07:50:47.003Z,17.10
2023-03-02T07:55:48.809Z,19.98
2023-03-02T08:00:50.795Z,18.10
2023-03-02T08:05:52.608Z,16.67
2023-03-02T08:10:54.487Z,34.25
2023-03-02T08:16:03.786Z,16.90
2023-03-02T08:21:16.217Z,16.02
2023-03-02T08:26:20.039Z,16.25
2023-03-02T08:31:22.095Z,14.48
2023-03-02T08:36:23.985Z,14.85
2023-03-02T08:41:26.292Z,16.50
2023-03-02T08:46:30.483Z,17.00
2023-03-02T08:51:32.633Z,16.80
2023-03-02T08:56:37.151Z,16.98
2023-03-02T09:01:40.126Z,20.65
2023-03-02T09:06:44.555Z,17.77
2023-03-02T09:11:48.111Z,14.65
2023-03-02T09:16:49.933Z,18.10
2023-03-02T09:21:51.871Z,15.30
2023-03-02T09:26:54.090Z,15.85
2023-03-02T09:31:56.048Z,14.15
2023-03-02T09:36:57.922Z,12.75
2023-03-02T09:42:07.171Z,15.45
2023-03-02T09:47:35.462Z,12.63
2023-03-02T09:53:08.448Z,15.50
2023-03-02T09:58:19.569Z,13.80
2023-03-02T10:03:34.826Z,12.48
2023-03-02T10:08:37.893Z,16.27
2023-03-02T10:14:03.580Z,18.63
2023-03-02T10:19:32.442Z,14.77
2023-03-02T10:24:49.354Z,14.63
2023-03-02T10:30:27.783Z,13.90
2023-03-02T10:35:31.702Z,12.25
2023-03-02T10:41:00.490Z,14.25
2023-03-02T10:46:08.743Z,19.08
2023-03-02T10:51:24.749Z,15.68
2023-03-02T10:56:26.749Z,14.05
2023-03-02T11:01:30.177Z,14.50
2023-03-02T11:06:33.344Z,11.90
2023-03-02T11:11:36.548Z,11.97
2023-03-02T11:16:38.643Z,13.23
2023-03-02T11:21:56.388Z,10.48
2023-03-02T11:27:08.306Z,11.15
2023-03-02T11:32:27.447Z,17.00
2023-03-02T11:37:52.503Z,13.45
2023-03-02T11:42:57.392Z,12.40
2023-03-02T11:48:04.966Z,14.00
2023-03-02T11:53:14.472Z,13.45
2023-03-02T11:58:26.598Z,12.95
2023-03-02T12:03:31.159Z,14.10
2023-03-02T12:08:41.866Z,13.20
2023-03-02T12:14:22.764Z,15.55
2023-03-02T12:19:28.275Z,14.13
2023-03-02T12:24:33.269Z,16.75
2023-03-02T12:30:00.910Z,9.57
2023-03-02T12:35:08.932Z,15.65
2023-03-02T12:40:33.479Z,14.63
2023-03-02T12:50:44.261Z,15.90
2023-03-02T12:55:46.836Z,15.75
2023-03-02T13:00:54.083Z,16.13
2023-03-02T13:06:04.710Z,11.13
2023-03-02T13:11:06.703Z,10.85
2023-03-02T13:16:33.746Z,13.00
2023-03-02T13:21:39.461Z,13.27
2023-03-02T13:26:41.253Z,14.18
2023-03-02T13:31:43.078Z,11.02
2023-03-02T13:36:44.883Z,10.57
2023-03-02T13:41:58.523Z,14.60
2023-03-02T13:47:01.172Z,11.93
2023-03-02T13:52:29.338Z,11.73
2023-03-02T13:57:32.585Z,13.80
2023-03-02T14:02:34.312Z,14.23
2023-03-02T14:07:36.026Z,15.63
2023-03-02T14:12:38.004Z,13.75
2023-03-02T14:17:40.999Z,10.15
2023-03-02T14:22:44.488Z,15.45
2023-03-02T14:27:47.420Z,11.97
2023-03-02T14:32:49.216Z,12.70
2023-03-02T14:37:51.221Z,9.90
2023-03-02T14:42:53.244Z,17.60
2023-03-02T14:47:54.962Z,8.98
2023-03-02T14:52:58.078Z,16.20
2023-03-02T14:58:04.445Z,14.52
2023-03-02T15:03:06.488Z,19.83
2023-03-02T15:08:12.445Z,15.98
2023-03-02T15:13:14.818Z,9.73
2023-03-02T15:18:19.574Z,9.38
2023-03-02T15:23:21.588Z,16.65
2023-03-02T15:28:23.259Z,13.48
2023-03-02T15:33:24.999Z,15.88
2023-03-02T15:38:27.153Z,19.35
2023-03-02T15:43:28.874Z,13.55
2023-03-02T15:48:30.621Z,14.27
2023-03-02T15:53:37.648Z,20.15
2023-03-02T15:58:40.079Z,16.83
2023-03-02T16:03:45.757Z,20.00
2023-03-02T16:08:47.518Z,21.33
2023-03-02T16:13:51.656Z,17.20
2023-03-02T16:18:57.917Z,16.17
2023-03-02T16:24:04.114Z,17.13
2023-03-02T16:29:09.585Z,16.13
2023-03-02T16:34:11.487Z,17.40
2023-03-02T16:39:14.445Z,19.58
2023-03-02T16:44:16.479Z,18.75
2023-03-02T16:49:18.517Z,14.40
2023-03-02T16:54:20.316Z,14.93
2023-03-02T16:59:22.385Z,16.02
2023-03-02T17:04:24.202Z,15.88
2023-03-02T17:09:26.033Z,19.20
2023-03-02T17:14:28.107Z,18.17
2023-03-02T17:19:29.871Z,26.05
2023-03-02T17:24:31.956Z,23.02
2023-03-02T17:29:33.951Z,24.63
2023-03-02T17:34:35.772Z,22.30
2023-03-02T17:39:38.804Z,19.08
2023-03-02T17:44:40.769Z,22.02
2023-03-02T17:49:45.818Z,20.25
2023-03-02T17:54:47.625Z,17.70
2023-03-02T17:59:50.537Z,18.00
2023-03-02T18:04:52.350Z,17.02
2023-03-02T18:09:54.152Z,17.45
2023-03-02T18:14:56.049Z,15.50
2023-03-02T18:19:57.904Z,17.00
2023-03-02T18:24:59.706Z,15.50
2023-03-02T18:30:01.500Z,26.88
2023-03-02T18:35:03.541Z,21.90
2023-03-02T18:40:06.609Z,16.80
2023-03-02T18:45:21.892Z,18.10
2023-03-02T18:50:24.427Z,17.30
2023-03-02T18:55:26.359Z,18.63
2023-03-02T19:00:28.912Z,17.73
2023-03-02T19:05:30.720Z,15.27
2023-03-02T19:10:32.597Z,15.65
2023-03-02T19:15:34.914Z,18.20
2023-03-02T19:20:36.665Z,16.92
2023-03-02T19:25:38.812Z,20.95
2023-03-02T19:30:40.653Z,21.08
2023-03-02T19:35:42.774Z,22.30
2023-03-02T19:40:44.597Z,20.15
2023-03-02T19:45:46.379Z,20.60
2023-03-02T19:50:48.184Z,16.67
2023-03-02T19:55:51.497Z,16.90
2023-03-02T20:00:53.321Z,18.70
2023-03-02T20:05:56.147Z,19.90
2023-03-02T20:10:58.721Z,25.05
2023-03-02T20:16:00.969Z,13.90
2023-03-02T20:21:02.764Z,15.38
2023-03-02T20:26:05.644Z,18.77
2023-03-02T20:31:11.969Z,20.85
2023-03-02T20:36:16.822Z,18.83
2023-03-02T20:41:19.481Z,15.90
2023-03-02T20:46:26.016Z,16.52
2023-03-02T20:51:29.243Z,15.52
2023-03-02T20:56:31.113Z,19.65
2023-03-02T21:01:33.052Z,19.95
2023-03-02T21:06:35.049Z,20.63
2023-03-02T21:11:37.194Z,38.25
2023-03-02T21:16:40.099Z,37.05
2023-03-02T21:21:42.646Z,31.58
2023-03-02T21:26:46.206Z,26.92
2023-03-02T21:31:48.221Z,19.08
2023-03-02T21:36:53.638Z,18.70
2023-03-02T21:41:55.534Z,17.38
2023-03-02T21:46:57.411Z,19.00
2023-03-02T21:51:59.284Z,20.80
2023-03-02T21:57:01.105Z,19.63
2023-03-02T22:02:04.869Z,21.23
2023-03-02T22:07:06.940Z,26.57
2023-03-02T22:12:13.811Z,27.77
2023-03-02T22:17:18.296Z,19.25
2023-03-02T22:22:27.714Z,22.48
2023-03-02T22:27:31.554Z,27.02
2023-03-02T22:32:38.326Z,19.53
2023-03-02T22:37:40.283Z,15.18
2023-03-02T22:42:42.196Z,17.55
2023-03-02T22:47:48.106Z,14.68
2023-03-02T22:52:51.183Z,15.20
2023-03-02T22:57:53.077Z,13.70
2023-03-02T23:02:56.314Z,19.73
2023-03-02T23:08:16.395Z,11.15
2023-03-02T23:13:21.930Z,13.32
2023-03-02T23:18:29.154Z,14.55
2023-03-02T23:23:31.042Z,9.15
2023-03-02T23:28:32.993Z,10.85
2023-03-02T23:33:34.896Z,14.75
2023-03-02T23:38:37.100Z,14.98
2023-03-02T23:43:38.976Z,14.23
2023-03-02T23:48:42.158Z,20.50
2023-03-02T23:53:44.800Z,16.27
2023-03-02T23:58:47.996Z,21.17
